sensor_id;sensor_type;location;lat;lon;timestamp;temperature;humidity
19007;DHT22;9636;47.382;8.480;2023-06-22T00:01:47;25.10;96.90
19007;DHT22;9636;47.382;8.480;2023-06-22T00:04:14;25.10;96.90
19007;DHT22;9636;47.382;8.480;2023-06-22T00:06:41;25.10;96.90
19007;DHT22;9636;47.382;8.480;2023-06-22T00:09:09;25.10;96.90
19007;DHT22;9636;47.382;8.480;2023-06-22T00:11:37;25.00;96.90
19007;DHT22;9636;47.382;8.480;2023-06-22T00:14:06;25.00;96.90
19007;DHT22;9636;47.382;8.480;2023-06-22T00:16:33;25.00;96.90
19007;DHT22;9636;47.382;8.480;2023-06-22T00:19:01;25.00;96.90
19007;DHT22;9636;47.382;8.480;2023-06-22T00:21:29;25.00;96.90
19007;DHT22;9636;47.382;8.480;2023-06-22T00:23:56;24.90;96.90
19007;DHT22;9636;47.382;8.480;2023-06-22T00:26:24;25.00;97.00
19007;DHT22;9636;47.382;8.480;2023-06-22T00:28:51;24.90;97.00
19007;DHT22;9636;47.382;8.480;2023-06-22T00:31:20;24.90;97.00
19007;DHT22;9636;47.382;8.480;2023-06-22T00:33:48;24.90;97.00
19007;DHT22;9636;47.382;8.480;2023-06-22T00:36:16;24.80;97.00
19007;DHT22;9636;47.382;8.480;2023-06-22T00:38:44;24.90;97.10
19007;DHT22;9636;47.382;8.480;2023-06-22T00:41:11;24.80;97.00
19007;DHT22;9636;47.382;8.480;2023-06-22T00:43:38;24.80;97.00
19007;DHT22;9636;47.382;8.480;2023-06-22T00:46:07;24.80;97.00
19007;DHT22;9636;47.382;8.480;2023-06-22T00:48:37;24.80;97.00
19007;DHT22;9636;47.382;8.480;2023-06-22T00:51:05;24.80;97.20
19007;DHT22;9636;47.382;8.480;2023-06-22T00:53:33;24.80;97.10
19007;DHT22;9636;47.382;8.480;2023-06-22T00:56:04;24.80;97.10
19007;DHT22;9636;47.382;8.480;2023-06-22T00:58:32;24.70;97.10
19007;DHT22;9636;47.382;8.480;2023-06-22T01:00:59;24.70;97.10
19007;DHT22;9636;47.382;8.480;2023-06-22T01:03:27;24.70;97.10
19007;DHT22;9636;47.382;8.480;2023-06-22T01:06:02;24.70;97.10
19007;DHT22;9636;47.382;8.480;2023-06-22T01:08:42;24.70;97.10
19007;DHT22;9636;47.382;8.480;2023-06-22T01:11:16;24.60;97.10
19007;DHT22;9636;47.382;8.480;2023-06-22T01:13:50;24.60;97.10
19007;DHT22;9636;47.382;8.480;2023-06-22T01:16:25;24.60;97.10
19007;DHT22;9636;47.382;8.480;2023-06-22T01:18:57;24.60;97.20
19007;DHT22;9636;47.382;8.480;2023-06-22T01:21:28;24.60;97.20
19007;DHT22;9636;47.382;8.480;2023-06-22T01:24:06;24.50;97.20
19007;DHT22;9636;47.382;8.480;2023-06-22T01:26:40;24.50;97.20
19007;DHT22;9636;47.382;8.480;2023-06-22T01:29:11;24.50;97.20
19007;DHT22;9636;47.382;8.480;2023-06-22T01:31:40;24.50;97.20
19007;DHT22;9636;47.382;8.480;2023-06-22T01:34:10;24.50;97.20
19007;DHT22;9636;47.382;8.480;2023-06-22T01:36:39;24.50;97.20
19007;DHT22;9636;47.382;8.480;2023-06-22T01:39:07;24.40;97.20
19007;DHT22;9636;47.382;8.480;2023-06-22T01:41:37;24.40;97.30
19007;DHT22;9636;47.382;8.480;2023-06-22T01:44:05;24.40;97.30
19007;DHT22;9636;47.382;8.480;2023-06-22T01:46:36;24.40;97.30
19007;DHT22;9636;47.382;8.480;2023-06-22T01:49:04;24.40;97.30
19007;DHT22;9636;47.382;8.480;2023-06-22T01:51:32;24.30;97.30
19007;DHT22;9636;47.382;8.480;2023-06-22T01:53:59;24.30;97.30
19007;DHT22;9636;47.382;8.480;2023-06-22T01:56:28;24.40;97.30
19007;DHT22;9636;47.382;8.480;2023-06-22T01:59:01;24.30;97.30
19007;DHT22;9636;47.382;8.480;2023-06-22T02:01:35;24.30;97.30
19007;DHT22;9636;47.382;8.480;2023-06-22T02:04:11;24.30;97.30
19007;DHT22;9636;47.382;8.480;2023-06-22T02:06:42;24.30;97.30
19007;DHT22;9636;47.382;8.480;2023-06-22T02:09:12;24.30;97.40
19007;DHT22;9636;47.382;8.480;2023-06-22T02:11:42;24.20;97.30
19007;DHT22;9636;47.382;8.480;2023-06-22T02:14:11;24.20;97.30
19007;DHT22;9636;47.382;8.480;2023-06-22T02:16:40;24.20;97.30
19007;DHT22;9636;47.382;8.480;2023-06-22T02:19:09;24.20;97.30
19007;DHT22;9636;47.382;8.480;2023-06-22T02:21:37;24.10;97.30
19007;DHT22;9636;47.382;8.480;2023-06-22T02:24:06;24.10;97.70
19007;DHT22;9636;47.382;8.480;2023-06-22T02:26:33;24.10;97.40
19007;DHT22;9636;47.382;8.480;2023-06-22T02:29:01;24.10;97.40
19007;DHT22;9636;47.382;8.480;2023-06-22T02:31:28;24.10;97.40
19007;DHT22;9636;47.382;8.480;2023-06-22T02:33:58;24.10;97.40
19007;DHT22;9636;47.382;8.480;2023-06-22T02:36:25;24.10;97.40
19007;DHT22;9636;47.382;8.480;2023-06-22T02:38:56;24.10;97.40
19007;DHT22;9636;47.382;8.480;2023-06-22T02:41:26;24.10;97.40
19007;DHT22;9636;47.382;8.480;2023-06-22T02:43:54;24.00;97.40
19007;DHT22;9636;47.382;8.480;2023-06-22T02:46:21;24.00;97.40
19007;DHT22;9636;47.382;8.480;2023-06-22T02:48:48;24.00;97.50
19007;DHT22;9636;47.382;8.480;2023-06-22T02:51:17;24.00;97.40
19007;DHT22;9636;47.382;8.480;2023-06-22T02:53:45;24.00;97.50
19007;DHT22;9636;47.382;8.480;2023-06-22T02:56:12;23.90;97.40
19007;DHT22;9636;47.382;8.480;2023-06-22T02:58:40;23.90;97.50
19007;DHT22;9636;47.382;8.480;2023-06-22T03:01:09;23.90;97.50
19007;DHT22;9636;47.382;8.480;2023-06-22T03:03:38;23.90;97.50
19007;DHT22;9636;47.382;8.480;2023-06-22T03:06:06;23.90;97.50
19007;DHT22;9636;47.382;8.480;2023-06-22T03:08:35;23.90;97.50
19007;DHT22;9636;47.382;8.480;2023-06-22T03:11:02;23.90;97.50
19007;DHT22;9636;47.382;8.480;2023-06-22T03:13:29;23.90;97.50
19007;DHT22;9636;47.382;8.480;2023-06-22T03:15:56;23.80;97.50
19007;DHT22;9636;47.382;8.480;2023-06-22T03:18:24;23.80;97.50
19007;DHT22;9636;47.382;8.480;2023-06-22T03:20:51;23.80;97.50
19007;DHT22;9636;47.382;8.480;2023-06-22T03:23:18;23.80;97.50
19007;DHT22;9636;47.382;8.480;2023-06-22T03:25:47;23.80;97.50
19007;DHT22;9636;47.382;8.480;2023-06-22T03:28:14;23.80;97.50
19007;DHT22;9636;47.382;8.480;2023-06-22T03:30:41;23.80;97.50
19007;DHT22;9636;47.382;8.480;2023-06-22T03:33:11;23.80;97.50
19007;DHT22;9636;47.382;8.480;2023-06-22T03:35:38;23.80;97.50
19007;DHT22;9636;47.382;8.480;2023-06-22T03:38:06;23.70;97.50
19007;DHT22;9636;47.382;8.480;2023-06-22T03:40:33;23.70;97.50
19007;DHT22;9636;47.382;8.480;2023-06-22T03:43:02;23.70;97.50
19007;DHT22;9636;47.382;8.480;2023-06-22T03:45:29;23.70;97.50
19007;DHT22;9636;47.382;8.480;2023-06-22T03:47:57;23.70;97.50
19007;DHT22;9636;47.382;8.480;2023-06-22T03:50:24;23.70;97.50
19007;DHT22;9636;47.382;8.480;2023-06-22T03:52:51;23.70;97.50
19007;DHT22;9636;47.382;8.480;2023-06-22T03:55:19;23.70;97.50
19007;DHT22;9636;47.382;8.480;2023-06-22T03:57:47;23.70;97.50
19007;DHT22;9636;47.382;8.480;2023-06-22T04:00:17;23.70;97.50
19007;DHT22;9636;47.382;8.480;2023-06-22T04:02:44;23.70;97.50
19007;DHT22;9636;47.382;8.480;2023-06-22T04:05:12;23.70;97.50
19007;DHT22;9636;47.382;8.480;2023-06-22T04:07:39;23.70;97.50
19007;DHT22;9636;47.382;8.480;2023-06-22T04:10:07;23.70;97.50
19007;DHT22;9636;47.382;8.480;2023-06-22T04:12:34;23.70;97.50
19007;DHT22;9636;47.382;8.480;2023-06-22T04:15:01;23.70;97.40
19007;DHT22;9636;47.382;8.480;2023-06-22T04:17:30;23.70;97.40
19007;DHT22;9636;47.382;8.480;2023-06-22T04:19:59;23.70;97.40
19007;DHT22;9636;47.382;8.480;2023-06-22T04:22:29;23.70;97.40
19007;DHT22;9636;47.382;8.480;2023-06-22T04:24:56;23.70;97.30
19007;DHT22;9636;47.382;8.480;2023-06-22T04:27:23;23.70;97.30
19007;DHT22;9636;47.382;8.480;2023-06-22T04:29:51;23.80;97.30
19007;DHT22;9636;47.382;8.480;2023-06-22T04:32:19;23.80;97.30
19007;DHT22;9636;47.382;8.480;2023-06-22T04:34:48;23.80;97.30
19007;DHT22;9636;47.382;8.480;2023-06-22T04:37:15;23.80;97.20
19007;DHT22;9636;47.382;8.480;2023-06-22T04:39:42;23.80;97.20
19007;DHT22;9636;47.382;8.480;2023-06-22T04:42:11;23.90;97.20
19007;DHT22;9636;47.382;8.480;2023-06-22T04:44:39;24.00;97.10
19007;DHT22;9636;47.382;8.480;2023-06-22T04:47:07;24.10;97.00
19007;DHT22;9636;47.382;8.480;2023-06-22T04:49:35;24.10;97.00
19007;DHT22;9636;47.382;8.480;2023-06-22T04:52:06;24.20;97.00
19007;DHT22;9636;47.382;8.480;2023-06-22T04:54:36;24.20;97.00
19007;DHT22;9636;47.382;8.480;2023-06-22T04:57:05;24.30;96.90
19007;DHT22;9636;47.382;8.480;2023-06-22T04:59:35;24.40;96.80
19007;DHT22;9636;47.382;8.480;2023-06-22T05:02:05;24.40;96.70
19007;DHT22;9636;47.382;8.480;2023-06-22T05:04:33;24.60;96.60
19007;DHT22;9636;47.382;8.480;2023-06-22T05:07:02;24.60;96.50
19007;DHT22;9636;47.382;8.480;2023-06-22T05:09:31;24.70;96.50
19007;DHT22;9636;47.382;8.480;2023-06-22T05:11:59;24.90;96.40
19007;DHT22;9636;47.382;8.480;2023-06-22T05:14:28;25.00;96.30
19007;DHT22;9636;47.382;8.480;2023-06-22T05:16:55;25.10;96.10
19007;DHT22;9636;47.382;8.480;2023-06-22T05:19:24;25.20;96.00
19007;DHT22;9636;47.382;8.480;2023-06-22T05:21:57;25.30;96.00
19007;DHT22;9636;47.382;8.480;2023-06-22T05:24:24;25.50;95.80
19007;DHT22;9636;47.382;8.480;2023-06-22T05:26:53;25.60;95.80
19007;DHT22;9636;47.382;8.480;2023-06-22T05:29:21;25.60;95.70
19007;DHT22;9636;47.382;8.480;2023-06-22T05:31:48;25.80;95.60
19007;DHT22;9636;47.382;8.480;2023-06-22T05:34:21;25.90;95.50
19007;DHT22;9636;47.382;8.480;2023-06-22T05:36:50;26.00;95.30
19007;DHT22;9636;47.382;8.480;2023-06-22T05:39:35;26.10;95.80
19007;DHT22;9636;47.382;8.480;2023-06-22T05:42:19;26.10;95.90
19007;DHT22;9636;47.382;8.480;2023-06-22T05:44:46;26.30;96.90
19007;DHT22;9636;47.382;8.480;2023-06-22T05:47:14;26.00;98.00
19007;DHT22;9636;47.382;8.480;2023-06-22T05:49:41;25.80;97.60
19007;DHT22;9636;47.382;8.480;2023-06-22T05:52:08;25.80;98.10
19007;DHT22;9636;47.382;8.480;2023-06-22T05:54:36;25.70;97.90
19007;DHT22;9636;47.382;8.480;2023-06-22T05:57:04;25.80;98.50
19007;DHT22;9636;47.382;8.480;2023-06-22T05:59:33;25.80;98.50
19007;DHT22;9636;47.382;8.480;2023-06-22T06:02:01;25.90;98.10
19007;DHT22;9636;47.382;8.480;2023-06-22T06:04:28;25.90;98.20
19007;DHT22;9636;47.382;8.480;2023-06-22T06:06:55;26.00;98.60
19007;DHT22;9636;47.382;8.480;2023-06-22T06:09:22;26.00;97.80
19007;DHT22;9636;47.382;8.480;2023-06-22T06:11:50;26.10;98.00
19007;DHT22;9636;47.382;8.480;2023-06-22T06:14:17;26.20;98.00
19007;DHT22;9636;47.382;8.480;2023-06-22T06:16:48;26.20;97.90
19007;DHT22;9636;47.382;8.480;2023-06-22T06:19:16;26.20;98.30
19007;DHT22;9636;47.382;8.480;2023-06-22T06:21:43;26.30;97.80
19007;DHT22;9636;47.382;8.480;2023-06-22T06:24:11;26.40;97.70
19007;DHT22;9636;47.382;8.480;2023-06-22T06:26:39;26.50;97.50
19007;DHT22;9636;47.382;8.480;2023-06-22T06:29:06;26.60;97.80
19007;DHT22;9636;47.382;8.480;2023-06-22T06:31:36;26.70;97.10
19007;DHT22;9636;47.382;8.480;2023-06-22T06:34:07;26.70;97.50
19007;DHT22;9636;47.382;8.480;2023-06-22T06:36:34;26.90;97.70
19007;DHT22;9636;47.382;8.480;2023-06-22T06:39:02;27.00;96.90
19007;DHT22;9636;47.382;8.480;2023-06-22T06:41:31;26.90;96.30
19007;DHT22;9636;47.382;8.480;2023-06-22T06:43:58;27.00;97.10
19007;DHT22;9636;47.382;8.480;2023-06-22T06:46:29;27.10;96.50
19007;DHT22;9636;47.382;8.480;2023-06-22T06:48:56;27.20;97.20
19007;DHT22;9636;47.382;8.480;2023-06-22T06:51:25;27.30;96.80
19007;DHT22;9636;47.382;8.480;2023-06-22T06:53:52;27.40;96.40
19007;DHT22;9636;47.382;8.480;2023-06-22T06:56:20;27.50;96.20
19007;DHT22;9636;47.382;8.480;2023-06-22T06:58:49;27.70;95.60
19007;DHT22;9636;47.382;8.480;2023-06-22T07:01:16;27.80;95.40
19007;DHT22;9636;47.382;8.480;2023-06-22T07:03:45;27.90;95.20
19007;DHT22;9636;47.382;8.480;2023-06-22T07:06:13;27.90;95.30
19007;DHT22;9636;47.382;8.480;2023-06-22T07:08:43;28.00;95.30
19007;DHT22;9636;47.382;8.480;2023-06-22T07:11:11;27.90;95.10
19007;DHT22;9636;47.382;8.480;2023-06-22T07:13:38;27.90;95.10
19007;DHT22;9636;47.382;8.480;2023-06-22T07:16:05;27.90;94.90
19007;DHT22;9636;47.382;8.480;2023-06-22T07:18:32;27.80;95.20
19007;DHT22;9636;47.382;8.480;2023-06-22T07:20:59;27.80;95.10
19007;DHT22;9636;47.382;8.480;2023-06-22T07:23:27;27.70;95.50
19007;DHT22;9636;47.382;8.480;2023-06-22T07:25:55;27.70;95.80
19007;DHT22;9636;47.382;8.480;2023-06-22T07:28:23;27.70;95.60
19007;DHT22;9636;47.382;8.480;2023-06-22T07:30:50;27.70;95.70
19007;DHT22;9636;47.382;8.480;2023-06-22T07:33:18;27.70;96.00
19007;DHT22;9636;47.382;8.480;2023-06-22T07:35:45;27.60;95.80
19007;DHT22;9636;47.382;8.480;2023-06-22T07:38:14;27.40;96.20
19007;DHT22;9636;47.382;8.480;2023-06-22T07:40:41;27.40;96.30
19007;DHT22;9636;47.382;8.480;2023-06-22T07:43:11;27.30;96.30
19007;DHT22;9636;47.382;8.480;2023-06-22T07:45:38;27.30;96.10
19007;DHT22;9636;47.382;8.480;2023-06-22T07:48:06;27.50;95.90
19007;DHT22;9636;47.382;8.480;2023-06-22T07:50:42;27.50;96.60
19007;DHT22;9636;47.382;8.480;2023-06-22T07:53:22;27.70;96.10
19007;DHT22;9636;47.382;8.480;2023-06-22T07:55:53;28.10;95.90
19007;DHT22;9636;47.382;8.480;2023-06-22T07:58:22;28.60;94.70
19007;DHT22;9636;47.382;8.480;2023-06-22T08:00:49;29.10;94.00
19007;DHT22;9636;47.382;8.480;2023-06-22T08:03:16;29.40;93.20
19007;DHT22;9636;47.382;8.480;2023-06-22T08:05:44;29.80;92.50
19007;DHT22;9636;47.382;8.480;2023-06-22T08:08:11;30.00;92.50
19007;DHT22;9636;47.382;8.480;2023-06-22T08:10:40;30.00;92.70
19007;DHT22;9636;47.382;8.480;2023-06-22T08:13:08;29.50;93.80
19007;DHT22;9636;47.382;8.480;2023-06-22T08:15:38;29.20;94.20
19007;DHT22;9636;47.382;8.480;2023-06-22T08:18:15;29.10;93.80
19007;DHT22;9636;47.382;8.480;2023-06-22T08:20:42;28.80;94.70
19007;DHT22;9636;47.382;8.480;2023-06-22T08:23:09;29.00;93.90
19007;DHT22;9636;47.382;8.480;2023-06-22T08:25:36;29.50;93.40
19007;DHT22;9636;47.382;8.480;2023-06-22T08:28:05;29.80;93.10
19007;DHT22;9636;47.382;8.480;2023-06-22T08:30:33;29.90;93.40
19007;DHT22;9636;47.382;8.480;2023-06-22T08:33:02;29.70;93.80
19007;DHT22;9636;47.382;8.480;2023-06-22T08:35:29;29.60;93.70
19007;DHT22;9636;47.382;8.480;2023-06-22T08:37:56;29.50;94.00
19007;DHT22;9636;47.382;8.480;2023-06-22T08:40:25;29.40;94.20
19007;DHT22;9636;47.382;8.480;2023-06-22T08:42:56;29.30;94.20
19007;DHT22;9636;47.382;8.480;2023-06-22T08:45:30;29.20;94.50
19007;DHT22;9636;47.382;8.480;2023-06-22T08:48:03;29.10;94.60
19007;DHT22;9636;47.382;8.480;2023-06-22T08:50:30;29.10;94.50
19007;DHT22;9636;47.382;8.480;2023-06-22T08:52:58;29.20;94.40
19007;DHT22;9636;47.382;8.480;2023-06-22T08:55:25;29.20;94.10
19007;DHT22;9636;47.382;8.480;2023-06-22T08:57:53;29.30;94.10
19007;DHT22;9636;47.382;8.480;2023-06-22T09:00:20;29.20;94.20
19007;DHT22;9636;47.382;8.480;2023-06-22T09:02:49;29.20;94.20
19007;DHT22;9636;47.382;8.480;2023-06-22T09:05:18;29.10;94.50
19007;DHT22;9636;47.382;8.480;2023-06-22T09:07:47;29.00;94.40
19007;DHT22;9636;47.382;8.480;2023-06-22T09:10:14;29.00;94.60
19007;DHT22;9636;47.382;8.480;2023-06-22T09:12:42;29.00;94.80
19007;DHT22;9636;47.382;8.480;2023-06-22T09:15:10;29.10;95.00
19007;DHT22;9636;47.382;8.480;2023-06-22T09:17:38;29.10;94.50
19007;DHT22;9636;47.382;8.480;2023-06-22T09:20:07;29.10;95.20
19007;DHT22;9636;47.382;8.480;2023-06-22T09:22:38;29.10;95.20
19007;DHT22;9636;47.382;8.480;2023-06-22T09:25:07;29.10;95.40
19007;DHT22;9636;47.382;8.480;2023-06-22T09:27:34;29.10;95.20
19007;DHT22;9636;47.382;8.480;2023-06-22T09:30:02;29.10;95.10
19007;DHT22;9636;47.382;8.480;2023-06-22T09:32:29;29.20;95.00
19007;DHT22;9636;47.382;8.480;2023-06-22T09:34:57;29.20;94.80
19007;DHT22;9636;47.382;8.480;2023-06-22T09:37:24;29.30;94.90
19007;DHT22;9636;47.382;8.480;2023-06-22T09:39:54;29.30;94.80
19007;DHT22;9636;47.382;8.480;2023-06-22T09:42:21;29.30;94.50
19007;DHT22;9636;47.382;8.480;2023-06-22T09:44:48;29.20;95.00
19007;DHT22;9636;47.382;8.480;2023-06-22T09:47:15;29.20;95.00
19007;DHT22;9636;47.382;8.480;2023-06-22T09:49:43;29.20;95.00
19007;DHT22;9636;47.382;8.480;2023-06-22T09:52:11;29.20;94.90
19007;DHT22;9636;47.382;8.480;2023-06-22T09:54:38;29.20;94.90
19007;DHT22;9636;47.382;8.480;2023-06-22T09:57:07;29.20;94.80
19007;DHT22;9636;47.382;8.480;2023-06-22T09:59:35;29.20;94.90
19007;DHT22;9636;47.382;8.480;2023-06-22T10:02:02;29.30;94.60
19007;DHT22;9636;47.382;8.480;2023-06-22T10:04:30;29.30;94.30
19007;DHT22;9636;47.382;8.480;2023-06-22T10:06:57;29.20;94.30
19007;DHT22;9636;47.382;8.480;2023-06-22T10:09:24;29.10;94.40
19007;DHT22;9636;47.382;8.480;2023-06-22T10:11:51;29.10;94.30
19007;DHT22;9636;47.382;8.480;2023-06-22T10:14:20;29.10;94.30
19007;DHT22;9636;47.382;8.480;2023-06-22T10:16:48;29.10;94.30
19007;DHT22;9636;47.382;8.480;2023-06-22T10:19:16;29.10;94.30
19007;DHT22;9636;47.382;8.480;2023-06-22T10:21:43;29.00;94.20
19007;DHT22;9636;47.382;8.480;2023-06-22T10:24:10;29.20;94.00
19007;DHT22;9636;47.382;8.480;2023-06-22T10:26:38;29.30;93.70
19007;DHT22;9636;47.382;8.480;2023-06-22T10:29:05;29.50;93.50
19007;DHT22;9636;47.382;8.480;2023-06-22T10:31:34;29.60;93.20
19007;DHT22;9636;47.382;8.480;2023-06-22T10:34:01;29.70;93.00
19007;DHT22;9636;47.382;8.480;2023-06-22T10:36:29;29.90;93.20
19007;DHT22;9636;47.382;8.480;2023-06-22T10:38:56;30.00;92.60
19007;DHT22;9636;47.382;8.480;2023-06-22T10:41:25;30.10;92.40
19007;DHT22;9636;47.382;8.480;2023-06-22T10:43:54;30.30;92.20
19007;DHT22;9636;47.382;8.480;2023-06-22T10:46:23;30.50;91.90
19007;DHT22;9636;47.382;8.480;2023-06-22T10:48:52;30.40;91.90
19007;DHT22;9636;47.382;8.480;2023-06-22T10:51:22;30.40;91.90
19007;DHT22;9636;47.382;8.480;2023-06-22T10:53:50;30.50;91.90
19007;DHT22;9636;47.382;8.480;2023-06-22T10:56:18;30.70;91.50
19007;DHT22;9636;47.382;8.480;2023-06-22T10:58:45;30.40;91.90
19007;DHT22;9636;47.382;8.480;2023-06-22T11:01:13;30.10;92.20
19007;DHT22;9636;47.382;8.480;2023-06-22T11:03:40;29.90;92.50
19007;DHT22;9636;47.382;8.480;2023-06-22T11:06:10;29.80;92.60
19007;DHT22;9636;47.382;8.480;2023-06-22T11:08:37;29.70;92.70
19007;DHT22;9636;47.382;8.480;2023-06-22T11:11:04;29.70;92.70
19007;DHT22;9636;47.382;8.480;2023-06-22T11:13:31;29.60;92.80
19007;DHT22;9636;47.382;8.480;2023-06-22T11:15:59;29.60;92.80
19007;DHT22;9636;47.382;8.480;2023-06-22T11:18:26;29.60;92.80
19007;DHT22;9636;47.382;8.480;2023-06-22T11:20:54;29.60;92.80
19007;DHT22;9636;47.382;8.480;2023-06-22T11:23:22;29.50;92.80
19007;DHT22;9636;47.382;8.480;2023-06-22T11:25:51;29.50;92.90
19007;DHT22;9636;47.382;8.480;2023-06-22T11:28:19;29.50;92.90
19007;DHT22;9636;47.382;8.480;2023-06-22T11:30:46;29.50;92.80
19007;DHT22;9636;47.382;8.480;2023-06-22T11:33:13;29.60;92.50
19007;DHT22;9636;47.382;8.480;2023-06-22T11:35:41;29.70;92.30
19007;DHT22;9636;47.382;8.480;2023-06-22T11:38:08;29.80;92.30
19007;DHT22;9636;47.382;8.480;2023-06-22T11:40:37;29.90;92.20
19007;DHT22;9636;47.382;8.480;2023-06-22T11:43:05;30.10;91.90
19007;DHT22;9636;47.382;8.480;2023-06-22T11:45:32;30.20;91.80
19007;DHT22;9636;47.382;8.480;2023-06-22T11:48:00;30.20;91.60
19007;DHT22;9636;47.382;8.480;2023-06-22T11:50:27;30.30;91.70
19007;DHT22;9636;47.382;8.480;2023-06-22T11:52:59;30.30;91.50
19007;DHT22;9636;47.382;8.480;2023-06-22T11:55:26;30.30;91.50
19007;DHT22;9636;47.382;8.480;2023-06-22T11:57:57;30.30;91.50
19007;DHT22;9636;47.382;8.480;2023-06-22T12:00:28;30.40;91.50
19007;DHT22;9636;47.382;8.480;2023-06-22T12:02:55;30.40;91.40
19007;DHT22;9636;47.382;8.480;2023-06-22T12:05:23;30.40;91.30
19007;DHT22;9636;47.382;8.480;2023-06-22T12:07:52;30.60;91.10
19007;DHT22;9636;47.382;8.480;2023-06-22T12:10:20;30.70;90.90
19007;DHT22;9636;47.382;8.480;2023-06-22T12:12:47;30.70;90.90
19007;DHT22;9636;47.382;8.480;2023-06-22T12:15:16;30.70;90.90
19007;DHT22;9636;47.382;8.480;2023-06-22T12:17:43;30.70;90.90
19007;DHT22;9636;47.382;8.480;2023-06-22T12:20:11;30.60;91.00
19007;DHT22;9636;47.382;8.480;2023-06-22T12:22:38;30.70;90.90
19007;DHT22;9636;47.382;8.480;2023-06-22T12:25:08;30.50;91.00
19007;DHT22;9636;47.382;8.480;2023-06-22T12:27:39;30.60;91.00
19007;DHT22;9636;47.382;8.480;2023-06-22T12:30:09;30.70;90.90
19007;DHT22;9636;47.382;8.480;2023-06-22T12:32:40;30.70;90.80
19007;DHT22;9636;47.382;8.480;2023-06-22T12:35:10;30.70;90.90
19007;DHT22;9636;47.382;8.480;2023-06-22T12:37:40;30.70;90.90
19007;DHT22;9636;47.382;8.480;2023-06-22T12:40:08;30.70;90.80
19007;DHT22;9636;47.382;8.480;2023-06-22T12:42:36;30.70;90.80
19007;DHT22;9636;47.382;8.480;2023-06-22T12:45:04;30.70;90.80
19007;DHT22;9636;47.382;8.480;2023-06-22T12:47:31;30.80;90.60
19007;DHT22;9636;47.382;8.480;2023-06-22T12:50:00;30.90;90.60
19007;DHT22;9636;47.382;8.480;2023-06-22T12:52:30;30.80;90.60
19007;DHT22;9636;47.382;8.480;2023-06-22T12:54:58;30.90;90.60
19007;DHT22;9636;47.382;8.480;2023-06-22T12:57:25;30.90;90.50
19007;DHT22;9636;47.382;8.480;2023-06-22T12:59:52;31.00;90.40
19007;DHT22;9636;47.382;8.480;2023-06-22T13:02:24;30.80;90.50
19007;DHT22;9636;47.382;8.480;2023-06-22T13:04:51;30.60;90.90
19007;DHT22;9636;47.382;8.480;2023-06-22T13:07:20;30.50;91.10
19007;DHT22;9636;47.382;8.480;2023-06-22T13:09:48;30.30;91.30
19007;DHT22;9636;47.382;8.480;2023-06-22T13:12:17;30.30;91.40
19007;DHT22;9636;47.382;8.480;2023-06-22T13:14:45;30.30;91.40
19007;DHT22;9636;47.382;8.480;2023-06-22T13:17:13;30.20;91.40
19007;DHT22;9636;47.382;8.480;2023-06-22T13:19:40;30.20;91.50
19007;DHT22;9636;47.382;8.480;2023-06-22T13:22:28;30.10;91.50
19007;DHT22;9636;47.382;8.480;2023-06-22T13:24:56;30.10;91.50
19007;DHT22;9636;47.382;8.480;2023-06-22T13:27:24;30.10;91.50
19007;DHT22;9636;47.382;8.480;2023-06-22T13:29:52;30.00;91.60
19007;DHT22;9636;47.382;8.480;2023-06-22T13:32:19;30.00;91.90
19007;DHT22;9636;47.382;8.480;2023-06-22T13:34:46;30.00;91.60
19007;DHT22;9636;47.382;8.480;2023-06-22T13:37:14;29.90;91.70
19007;DHT22;9636;47.382;8.480;2023-06-22T13:39:43;29.90;91.70
19007;DHT22;9636;47.382;8.480;2023-06-22T13:42:10;29.90;91.70
19007;DHT22;9636;47.382;8.480;2023-06-22T13:44:37;29.90;91.80
19007;DHT22;9636;47.382;8.480;2023-06-22T13:47:06;29.80;91.80
19007;DHT22;9636;47.382;8.480;2023-06-22T13:49:34;29.80;91.80
19007;DHT22;9636;47.382;8.480;2023-06-22T13:52:01;29.80;91.90
19007;DHT22;9636;47.382;8.480;2023-06-22T13:54:29;29.90;91.70
19007;DHT22;9636;47.382;8.480;2023-06-22T13:56:59;29.90;91.60
19007;DHT22;9636;47.382;8.480;2023-06-22T13:59:27;29.90;91.60
19007;DHT22;9636;47.382;8.480;2023-06-22T14:01:55;29.90;91.60
19007;DHT22;9636;47.382;8.480;2023-06-22T14:04:23;29.80;91.70
19007;DHT22;9636;47.382;8.480;2023-06-22T14:06:50;29.80;91.70
19007;DHT22;9636;47.382;8.480;2023-06-22T14:09:18;29.70;91.80
19007;DHT22;9636;47.382;8.480;2023-06-22T14:11:45;29.70;91.90
19007;DHT22;9636;47.382;8.480;2023-06-22T14:14:14;29.60;91.90
19007;DHT22;9636;47.382;8.480;2023-06-22T14:16:41;29.60;91.90
19007;DHT22;9636;47.382;8.480;2023-06-22T14:19:09;29.60;91.90
19007;DHT22;9636;47.382;8.480;2023-06-22T14:21:37;29.60;92.00
19007;DHT22;9636;47.382;8.480;2023-06-22T14:24:04;29.60;92.10
19007;DHT22;9636;47.382;8.480;2023-06-22T14:26:31;29.50;92.10
19007;DHT22;9636;47.382;8.480;2023-06-22T14:28:59;29.50;92.10
19007;DHT22;9636;47.382;8.480;2023-06-22T14:31:28;29.50;92.10
19007;DHT22;9636;47.382;8.480;2023-06-22T14:33:55;29.50;92.10
19007;DHT22;9636;47.382;8.480;2023-06-22T14:36:23;29.60;91.90
19007;DHT22;9636;47.382;8.480;2023-06-22T14:38:50;29.70;91.80
19007;DHT22;9636;47.382;8.480;2023-06-22T14:41:18;29.70;91.60
19007;DHT22;9636;47.382;8.480;2023-06-22T14:43:47;29.90;91.60
19007;DHT22;9636;47.382;8.480;2023-06-22T14:46:15;29.90;91.50
19007;DHT22;9636;47.382;8.480;2023-06-22T14:48:44;29.90;91.50
19007;DHT22;9636;47.382;8.480;2023-06-22T14:51:12;29.90;91.50
19007;DHT22;9636;47.382;8.480;2023-06-22T14:53:40;29.90;91.80
19007;DHT22;9636;47.382;8.480;2023-06-22T14:56:07;29.90;91.50
19007;DHT22;9636;47.382;8.480;2023-06-22T14:58:35;29.90;91.40
19007;DHT22;9636;47.382;8.480;2023-06-22T15:01:03;29.90;91.50
19007;DHT22;9636;47.382;8.480;2023-06-22T15:03:31;29.90;91.40
19007;DHT22;9636;47.382;8.480;2023-06-22T15:06:03;29.90;91.40
19007;DHT22;9636;47.382;8.480;2023-06-22T15:08:31;29.90;91.40
19007;DHT22;9636;47.382;8.480;2023-06-22T15:11:00;30.00;91.40
19007;DHT22;9636;47.382;8.480;2023-06-22T15:13:29;29.90;91.30
19007;DHT22;9636;47.382;8.480;2023-06-22T15:15:58;30.00;91.30
19007;DHT22;9636;47.382;8.480;2023-06-22T15:18:25;30.00;91.30
19007;DHT22;9636;47.382;8.480;2023-06-22T15:20:53;30.00;91.30
19007;DHT22;9636;47.382;8.480;2023-06-22T15:23:23;30.00;91.40
19007;DHT22;9636;47.382;8.480;2023-06-22T15:25:51;29.90;91.50
19007;DHT22;9636;47.382;8.480;2023-06-22T15:28:19;29.90;91.50
19007;DHT22;9636;47.382;8.480;2023-06-22T15:30:46;29.80;91.60
19007;DHT22;9636;47.382;8.480;2023-06-22T15:33:14;29.70;91.70
19007;DHT22;9636;47.382;8.480;2023-06-22T15:35:41;29.60;91.80
19007;DHT22;9636;47.382;8.480;2023-06-22T15:38:09;29.60;91.90
19007;DHT22;9636;47.382;8.480;2023-06-22T15:40:38;29.50;91.90
19007;DHT22;9636;47.382;8.480;2023-06-22T15:43:10;29.50;92.00
19007;DHT22;9636;47.382;8.480;2023-06-22T15:45:38;29.40;92.10
19007;DHT22;9636;47.382;8.480;2023-06-22T15:48:06;29.40;92.00
19007;DHT22;9636;47.382;8.480;2023-06-22T15:50:33;29.40;92.40
19007;DHT22;9636;47.382;8.480;2023-06-22T15:53:02;29.40;92.00